Погода Сан-Фелис-ду-Шингуна 2 недели

Пара, Бразилия

16 - 28 июня
  • 16июня
    Сегодня
    +21°
    +33°
    Небольшая облачность
    ВремяПогодаТемператураВлажностьДавлениеВетер, м/сВероятность осадков
    02:00Небольшая облачность+21°C78 %740 мм1.4 м/с5 %
    05:00Небольшая облачность+21°C87 %741 мм1.3 м/с5 %
    08:00Облачно с прояснениями+26°C65 %743 мм1.1 м/с5 %
    11:00Ясно и безоблачно+31°C40 %742 мм2.4 м/с5 %
    14:00Небольшая облачность+33°C36 %740 мм2.7 м/с5 %
    17:00Ясно и безоблачно+29°C51 %740 мм1.8 м/с5 %
    20:00Ясно и безоблачно+27°C60 %741 мм1.9 м/с5 %
    23:00Ясно и безоблачно+23°C72 %741 мм1.7 м/с5 %
  • 17июня
    Понедельник
    +21°
    +33°
    Небольшая облачность
    ВремяПогодаТемператураВлажностьДавлениеВетер, м/сВероятность осадков
    02:00Ясно и безоблачно+23°C75 %740 мм1.2 м/с5 %
    05:00Облачно с прояснениями+23°C83 %740 мм1.0 м/с5 %
    08:00Ясно и безоблачно+27°C63 %742 мм1.8 м/с5 %
    11:00Ясно и безоблачно+31°C41 %741 мм2.7 м/с3 %
    14:00Небольшая облачность+32°C40 %739 мм2.7 м/с8 %
    17:00Ясно и безоблачно+29°C60 %739 мм1.4 м/с3 %
    20:00Ясно и безоблачно+27°C63 %740 мм1.8 м/с5 %
    23:00Практически безоблачно+24°C71 %740 мм1.7 м/с5 %
  • 18июня
    Вторник
    +21°
    +33°
    Ясно и безоблачно
    ВремяПогодаТемператураВлажностьДавлениеВетер, м/сВероятность осадков
    02:00Ясно и безоблачно+24°C71 %739 мм0.8 м/с2 %
    05:00Ясно и безоблачно+23°C78 %739 мм1.0 м/с2 %
    08:00Ясно и безоблачно+27°C64 %741 мм0.9 м/с3 %
    11:00Ясно и безоблачно+32°C40 %740 мм2.8 м/с5 %
    14:00Ясно и безоблачно+33°C38 %738 мм2.8 м/с9 %
    17:00Ясно и безоблачно+30°C54 %738 мм1.5 м/с3 %
    20:00Ясно и безоблачно+28°C61 %740 мм1.7 м/с3 %
    23:00Ясно и безоблачно+24°C69 %740 мм1.7 м/с5 %
  • 19июня
    Среда
    +21°
    +34°
    Ясно и безоблачно
    ВремяПогодаТемператураВлажностьДавлениеВетер, м/сВероятность осадков
    02:00Ясно и безоблачно+24°C72 %739 мм0.3 м/с5 %
    05:00Ясно и безоблачно+23°C84 %740 мм0.6 м/с5 %
    08:00Ясно и безоблачно+27°C64 %741 мм0.3 м/с5 %
    11:00Ясно и безоблачно+31°C44 %741 мм3.0 м/с4 %
    14:00Ясно и безоблачно+33°C39 %739 мм3.0 м/с7 %
    17:00Ясно и безоблачно+30°C56 %738 мм1.6 м/с5 %
    20:00Небольшая облачность+29°C59 %740 мм1.6 м/с4 %
    23:00Ясно и безоблачно+25°C64 %740 мм1.9 м/с4 %
Мы используем cookies
Соглашаюсь